Time;durP1;ratioP1;P1;durP2;ratioP2;P2;SDS_P1;SDS_P2;PMS_P1;PMS_P2;Temp;Humidity;BMP_temperature;BMP_pressure;BME280_temperature;BME280_humidity;BME280_pressure;Samples;Min_cycle;Max_cycle;Signal;HPM_P1;HPM_P2
2023/01/20 00:01:00;;;;;;;3.20;1.20;;;;;;;;;;6210705;23;20425;-72
2023/01/20 00:03:25;;;;;;;3.60;0.90;;;;;;;;;;6206869;23;20151;-72
2023/01/20 00:05:51;;;;;;;5.40;1.10;;;;;;;;;;6208152;23;20179;-72
2023/01/20 00:08:16;;;;;;;2.87;1.03;;;;;;;;;;6209881;23;20159;-73
2023/01/20 00:10:41;;;;;;;3.60;1.10;;;;;;;;;;6210904;23;20148;-72
2023/01/20 00:13:06;;;;;;;2.97;1.30;;;;;;;;;;6210003;23;20551;-72
2023/01/20 00:15:32;;;;;;;2.10;0.90;;;;;;;;;;6209413;23;20198;-73
2023/01/20 00:17:57;;;;;;;2.00;1.20;;;;;;;;;;6211669;23;20143;-72
2023/01/20 00:20:22;;;;;;;4.30;1.60;;;;;;;;;;6209903;23;20198;-73
2023/01/20 00:22:47;;;;;;;3.23;1.00;;;;;;;;;;6210104;23;20561;-72
2023/01/20 00:25:13;;;;;;;2.73;1.33;;;;;;;;;;6211449;23;20187;-73
2023/01/20 00:27:38;;;;;;;5.93;2.13;;;;;;;;;;6210773;23;20646;-73
2023/01/20 00:30:03;;;;;;;1.70;1.20;;;;;;;;;;6211106;23;20152;-72
2023/01/20 00:32:29;;;;;;;3.13;1.47;;;;;;;;;;6211561;23;20594;-73
2023/01/20 00:34:54;;;;;;;2.50;1.63;;;;;;;;;;6211581;23;20171;-73
2023/01/20 00:37:22;;;;;;;6.00;1.60;;;;;;;;;;6184972;23;20683;-73
2023/01/20 00:39:47;;;;;;;3.50;1.53;;;;;;;;;;6182553;23;20179;-73
2023/01/20 00:42:12;;;;;;;4.60;1.30;;;;;;;;;;6181991;23;20465;-72
2023/01/20 00:44:37;;;;;;;2.40;1.30;;;;;;;;;;6209569;23;20198;-72
2023/01/20 00:47:03;;;;;;;3.57;1.30;;;;;;;;;;6205793;23;20236;-73
2023/01/20 00:49:28;;;;;;;1.33;1.20;;;;;;;;;;6209013;23;20155;-73
2023/01/20 00:51:53;;;;;;;2.83;1.70;;;;;;;;;;6211178;23;20237;-72
2023/01/20 00:54:18;;;;;;;3.77;1.37;;;;;;;;;;6185214;23;20302;-72
2023/01/20 00:56:44;;;;;;;3.93;1.60;;;;;;;;;;6210986;23;20490;-72
2023/01/20 00:59:09;;;;;;;3.67;1.20;;;;;;;;;;6184456;23;20639;-72
2023/01/20 01:01:35;;;;;;;3.20;1.30;;;;;;;;;;6211163;23;20160;-72
2023/01/20 01:04:00;;;;;;;2.60;1.00;;;;;;;;;;6184123;23;20151;-73
2023/01/20 01:06:25;;;;;;;6.20;2.40;;;;;;;;;;6184248;23;20160;-72
2023/01/20 01:08:53;;;;;;;1.20;0.90;;;;;;;;;;6210561;23;20151;-72
2023/01/20 01:11:18;;;;;;;2.60;1.30;;;;;;;;;;6210843;23;20239;-73
2023/01/20 01:13:43;;;;;;;2.20;0.90;;;;;;;;;;6210100;23;20399;-72
2023/01/20 01:16:10;;;;;;;1.70;1.10;;;;;;;;;;6184312;23;20160;-72
2023/01/20 01:18:36;;;;;;;3.00;1.03;;;;;;;;;;6210026;23;20218;-73
2023/01/20 01:21:05;;;;;;;1.87;1.13;;;;;;;;;;6210733;23;20766;-72
2023/01/20 01:23:30;;;;;;;2.77;1.40;;;;;;;;;;6184718;23;20152;-73
2023/01/20 01:25:55;;;;;;;3.50;1.20;;;;;;;;;;6212039;23;20434;-73
2023/01/20 01:28:20;;;;;;;2.57;1.10;;;;;;;;;;6183361;23;20155;-73
2023/01/20 01:30:48;;;;;;;2.10;1.07;;;;;;;;;;6185226;23;20666;-72
2023/01/20 01:33:13;;;;;;;2.23;1.20;;;;;;;;;;6184665;23;20175;-72
2023/01/20 01:35:39;;;;;;;2.87;1.60;;;;;;;;;;6210300;23;20371;-72
2023/01/20 01:38:04;;;;;;;2.10;1.20;;;;;;;;;;6183262;23;20465;-72
2023/01/20 01:40:29;;;;;;;5.50;1.67;;;;;;;;;;6210185;23;20172;-72
2023/01/20 01:42:55;;;;;;;2.20;1.20;;;;;;;;;;6208905;23;20229;-72
2023/01/20 01:45:22;;;;;;;7.43;1.90;;;;;;;;;;6182400;23;20152;-73
2023/01/20 01:47:56;;;;;;;2.90;1.30;;;;;;;;;;6209226;23;20140;-71
2023/01/20 01:50:28;;;;;;;2.73;1.43;;;;;;;;;;6209915;23;20971;-74
2023/01/20 01:52:54;;;;;;;2.43;1.43;;;;;;;;;;6207970;23;20391;-69
2023/01/20 01:55:21;;;;;;;1.60;1.40;;;;;;;;;;6210725;23;20370;-70
2023/01/20 01:57:47;;;;;;;2.07;1.57;;;;;;;;;;6209788;23;20390;-70
2023/01/20 02:00:12;;;;;;;4.23;1.77;;;;;;;;;;6208692;23;20418;-69
2023/01/20 02:02:38;;;;;;;1.60;1.50;;;;;;;;;;6210081;23;20395;-70
2023/01/20 02:05:03;;;;;;;3.30;1.80;;;;;;;;;;6182574;23;20210;-70
2023/01/20 02:07:30;;;;;;;3.13;2.03;;;;;;;;;;6209284;23;20937;-70
2023/01/20 02:09:56;;;;;;;3.10;1.93;;;;;;;;;;6209569;23;20538;-70
2023/01/20 02:12:21;;;;;;;3.40;2.20;;;;;;;;;;6209284;23;20391;-70
2023/01/20 02:14:51;;;;;;;2.67;2.10;;;;;;;;;;6209349;23;20151;-70
2023/01/20 02:17:30;;;;;;;2.30;2.10;;;;;;;;;;6180930;23;20166;-69
2023/01/20 02:19:56;;;;;;;3.50;2.67;;;;;;;;;;6209177;23;20414;-70
2023/01/20 02:22:40;;;;;;;3.30;2.57;;;;;;;;;;6183335;23;20494;-69
2023/01/20 02:25:14;;;;;;;2.83;2.50;;;;;;;;;;6206683;23;20151;-70
2023/01/20 02:27:58;;;;;;;3.17;2.70;;;;;;;;;;6208486;23;20366;-70
2023/01/20 02:30:42;;;;;;;4.23;3.27;;;;;;;;;;6206833;23;20478;-70
2023/01/20 02:33:10;;;;;;;3.80;3.03;;;;;;;;;;6210029;23;20421;-72
2023/01/20 02:35:38;;;;;;;4.63;4.20;;;;;;;;;;6208905;23;20956;-72
2023/01/20 02:38:16;;;;;;;5.40;4.03;;;;;;;;;;6210427;23;20359;-71
2023/01/20 02:40:48;;;;;;;5.70;5.10;;;;;;;;;;6184386;23;20497;-72
2023/01/20 02:43:18;;;;;;;8.37;6.13;;;;;;;;;;6184203;23;20486;-72
2023/01/20 02:45:47;;;;;;;7.30;6.10;;;;;;;;;;6208784;23;20367;-73
2023/01/20 02:48:22;;;;;;;6.90;6.07;;;;;;;;;;6184883;23;20727;-73
2023/01/20 02:50:50;;;;;;;5.90;5.30;;;;;;;;;;6211297;23;20382;-72
2023/01/20 02:53:16;;;;;;;6.27;5.70;;;;;;;;;;6185095;23;20426;-73
2023/01/20 02:55:43;;;;;;;9.37;6.50;;;;;;;;;;6208997;23;20366;-73
2023/01/20 02:58:32;;;;;;;7.20;6.23;;;;;;;;;;6182885;23;20374;-73
2023/01/20 03:01:01;;;;;;;8.00;6.80;;;;;;;;;;6185151;23;20422;-73
2023/01/20 03:03:32;;;;;;;8.10;6.20;;;;;;;;;;6183048;23;20734;-72
2023/01/20 03:05:59;;;;;;;8.43;6.30;;;;;;;;;;6211640;23;20398;-73
2023/01/20 03:08:26;;;;;;;7.47;6.20;;;;;;;;;;6211595;23;20877;-73
2023/01/20 03:10:53;;;;;;;7.30;6.60;;;;;;;;;;6212287;23;20757;-74
2023/01/20 03:13:31;;;;;;;7.20;6.50;;;;;;;;;;6212041;23;20387;-73
2023/01/20 03:15:58;;;;;;;7.60;6.40;;;;;;;;;;6212046;23;20702;-73
2023/01/20 03:18:25;;;;;;;8.47;7.20;;;;;;;;;;6185315;23;20476;-72
2023/01/20 03:20:51;;;;;;;8.80;7.07;;;;;;;;;;6209812;23;20718;-73
2023/01/20 03:23:16;;;;;;;7.97;7.10;;;;;;;;;;6184524;23;20421;-72
2023/01/20 03:25:42;;;;;;;7.10;6.40;;;;;;;;;;6212547;23;20155;-73
2023/01/20 03:28:08;;;;;;;8.33;7.37;;;;;;;;;;6211021;23;20600;-72
2023/01/20 03:30:33;;;;;;;7.43;6.10;;;;;;;;;;6186195;23;20433;-73
2023/01/20 03:32:59;;;;;;;8.07;7.27;;;;;;;;;;6186079;23;20179;-73
2023/01/20 03:35:24;;;;;;;8.00;7.10;;;;;;;;;;6186124;23;20156;-72
2023/01/20 03:37:50;;;;;;;7.00;6.40;;;;;;;;;;6212693;23;20403;-73
2023/01/20 03:40:15;;;;;;;9.30;7.97;;;;;;;;;;6186681;23;20597;-72
2023/01/20 03:42:47;;;;;;;9.10;7.60;;;;;;;;;;6184950;23;20526;-73
2023/01/20 03:45:22;;;;;;;9.23;7.50;;;;;;;;;;6213713;23;20154;-73
2023/01/20 03:47:52;;;;;;;9.77;7.87;;;;;;;;;;6186897;23;20761;-72
2023/01/20 03:50:20;;;;;;;8.23;7.10;;;;;;;;;;6184896;23;20402;-73
2023/01/20 03:52:58;;;;;;;10.80;8.43;;;;;;;;;;6212795;23;20387;-73
2023/01/20 03:55:27;;;;;;;9.50;7.17;;;;;;;;;;6213636;23;20367;-73
2023/01/20 03:57:55;;;;;;;8.77;7.57;;;;;;;;;;6211633;23;21069;-72
2023/01/20 04:00:21;;;;;;;9.63;8.40;;;;;;;;;;6210299;23;20407;-73
2023/01/20 04:02:48;;;;;;;10.77;8.60;;;;;;;;;;6211536;23;20391;-72
2023/01/20 04:05:13;;;;;;;9.63;8.60;;;;;;;;;;6210412;23;20363;-73
2023/01/20 04:07:39;;;;;;;10.50;8.43;;;;;;;;;;6184403;23;20410;-72
2023/01/20 04:10:06;;;;;;;10.47;9.30;;;;;;;;;;6184866;23;20175;-72
2023/01/20 04:12:31;;;;;;;10.03;9.07;;;;;;;;;;6210727;23;20523;-72
2023/01/20 04:14:56;;;;;;;9.73;7.77;;;;;;;;;;6212053;23;20371;-72
2023/01/20 04:17:25;;;;;;;11.60;8.73;;;;;;;;;;6210357;23;20223;-74
2023/01/20 04:19:51;;;;;;;10.13;8.90;;;;;;;;;;6211558;23;20175;-73
2023/01/20 04:22:21;;;;;;;10.00;9.00;;;;;;;;;;6210728;23;21304;-72
2023/01/20 04:25:13;;;;;;;9.40;8.50;;;;;;;;;;6183897;23;20156;-73
2023/01/20 04:27:38;;;;;;;9.47;8.53;;;;;;;;;;6178091;23;20466;-73
2023/01/20 04:30:03;;;;;;;10.33;8.97;;;;;;;;;;6210323;23;20395;-72
2023/01/20 04:32:29;;;;;;;8.93;8.03;;;;;;;;;;6202615;23;20188;-72
2023/01/20 04:34:54;;;;;;;10.40;8.80;;;;;;;;;;6207964;23;20152;-73
2023/01/20 04:37:19;;;;;;;12.10;9.10;;;;;;;;;;6209069;23;20156;-73
2023/01/20 04:39:44;;;;;;;11.70;8.13;;;;;;;;;;6209973;23;20198;-73
2023/01/20 04:42:10;;;;;;;11.70;9.07;;;;;;;;;;6209880;23;20624;-72
2023/01/20 04:44:36;;;;;;;11.70;9.10;;;;;;;;;;6209409;23;20158;-73
2023/01/20 04:47:01;;;;;;;10.03;8.00;;;;;;;;;;6210438;23;20148;-71
2023/01/20 04:49:28;;;;;;;10.97;9.27;;;;;;;;;;6208813;23;20147;-71
2023/01/20 04:51:54;;;;;;;17.00;10.53;;;;;;;;;;6231536;23;20178;-71
2023/01/20 04:54:19;;;;;;;10.67;9.57;;;;;;;;;;6210441;23;20473;-71
2023/01/20 04:56:46;;;;;;;10.20;9.10;;;;;;;;;;6209244;23;20159;-70
2023/01/20 04:59:11;;;;;;;13.47;8.93;;;;;;;;;;6210289;23;20702;-71
2023/01/20 05:01:37;;;;;;;10.67;9.03;;;;;;;;;;6210004;23;20457;-70
2023/01/20 05:04:02;;;;;;;11.57;9.50;;;;;;;;;;6212480;23;20144;-71
2023/01/20 05:06:27;;;;;;;11.00;9.67;;;;;;;;;;6209584;23;20151;-71
2023/01/20 05:08:53;;;;;;;11.70;9.57;;;;;;;;;;6207010;23;20635;-70
2023/01/20 05:11:18;;;;;;;10.53;9.53;;;;;;;;;;6208568;23;20223;-70
2023/01/20 05:13:43;;;;;;;14.43;10.67;;;;;;;;;;6206478;23;20166;-69
2023/01/20 05:16:09;;;;;;;10.80;9.50;;;;;;;;;;6208412;23;20179;-71
2023/01/20 05:18:34;;;;;;;11.73;9.67;;;;;;;;;;6209577;23;20883;-71
2023/01/20 05:20:59;;;;;;;11.90;10.13;;;;;;;;;;6209523;23;20148;-70
2023/01/20 05:23:25;;;;;;;11.17;9.90;;;;;;;;;;6210145;23;20689;-73
2023/01/20 05:25:50;;;;;;;11.10;10.00;;;;;;;;;;6209239;23;20166;-74
2023/01/20 05:28:16;;;;;;;12.50;11.20;;;;;;;;;;6209746;23;20144;-72
2023/01/20 05:30:41;;;;;;;11.70;10.50;;;;;;;;;;6210191;23;20929;-73
2023/01/20 05:33:06;;;;;;;14.70;11.70;;;;;;;;;;6212684;23;20508;-73
2023/01/20 05:35:31;;;;;;;13.50;11.40;;;;;;;;;;6212061;23;20156;-73
2023/01/20 05:37:57;;;;;;;13.20;11.43;;;;;;;;;;6212634;23;20534;-72
2023/01/20 05:40:22;;;;;;;13.63;12.03;;;;;;;;;;6183430;23;20222;-73
2023/01/20 05:42:47;;;;;;;14.23;12.07;;;;;;;;;;6212129;23;20159;-74
2023/01/20 05:45:13;;;;;;;13.90;12.30;;;;;;;;;;6212458;23;20603;-72
2023/01/20 05:47:38;;;;;;;14.87;10.67;;;;;;;;;;6210936;23;20148;-72
2023/01/20 05:50:03;;;;;;;15.27;12.07;;;;;;;;;;6212559;23;20148;-72
2023/01/20 05:52:29;;;;;;;15.50;12.80;;;;;;;;;;6185098;23;20178;-72
2023/01/20 05:54:54;;;;;;;16.33;13.07;;;;;;;;;;6185671;23;20156;-72
2023/01/20 05:57:22;;;;;;;16.03;13.60;;;;;;;;;;6186584;23;20156;-73
2023/01/20 05:59:48;;;;;;;13.97;11.97;;;;;;;;;;6185337;23;20186;-74
2023/01/20 06:02:17;;;;;;;14.90;12.50;;;;;;;;;;6209477;23;20466;-72
2023/01/20 06:04:42;;;;;;;18.10;13.47;;;;;;;;;;6184283;23;20869;-73
2023/01/20 06:07:08;;;;;;;16.23;13.17;;;;;;;;;;6210853;23;20363;-73
2023/01/20 06:09:33;;;;;;;15.70;13.03;;;;;;;;;;6209360;23;20148;-74
2023/01/20 06:11:58;;;;;;;15.97;13.37;;;;;;;;;;6182521;23;20202;-73
2023/01/20 06:14:24;;;;;;;18.20;14.20;;;;;;;;;;6208932;23;20210;-73
2023/01/20 06:16:49;;;;;;;16.20;13.63;;;;;;;;;;6181205;23;20218;-73
2023/01/20 06:19:14;;;;;;;18.03;14.47;;;;;;;;;;6205247;23;20517;-73
2023/01/20 06:21:39;;;;;;;18.33;13.60;;;;;;;;;;6208243;23;20174;-73
2023/01/20 06:24:05;;;;;;;17.30;13.90;;;;;;;;;;6208020;23;20144;-74
2023/01/20 06:26:30;;;;;;;18.40;13.77;;;;;;;;;;6210358;23;20493;-73
2023/01/20 06:29:02;;;;;;;16.00;13.20;;;;;;;;;;6185794;23;20170;-73
2023/01/20 06:31:27;;;;;;;16.77;13.40;;;;;;;;;;6208228;23;20280;-73
2023/01/20 06:34:30;;;;;;;16.47;13.33;;;;;;;;;;6211235;23;20379;-74
2023/01/20 06:36:57;;;;;;;17.77;13.50;;;;;;;;;;6182558;23;20160;-73
2023/01/20 06:39:22;;;;;;;19.00;14.80;;;;;;;;;;6182693;23;20513;-73
2023/01/20 06:41:47;;;;;;;17.83;14.20;;;;;;;;;;6183170;23;20176;-73
2023/01/20 06:44:13;;;;;;;17.90;13.90;;;;;;;;;;6206541;23;20576;-72
2023/01/20 06:46:38;;;;;;;15.90;12.47;;;;;;;;;;6211749;23;20488;-72
2023/01/20 06:49:03;;;;;;;15.20;11.90;;;;;;;;;;6184189;23;20156;-73
2023/01/20 06:51:29;;;;;;;17.20;13.30;;;;;;;;;;6212274;23;20199;-72
2023/01/20 06:53:55;;;;;;;17.13;12.27;;;;;;;;;;6210956;23;20148;-73
2023/01/20 06:56:20;;;;;;;15.27;12.87;;;;;;;;;;6212274;23;20148;-73
2023/01/20 06:58:45;;;;;;;15.87;12.50;;;;;;;;;;6181820;23;20199;-72
2023/01/20 07:01:19;;;;;;;14.70;11.87;;;;;;;;;;6209029;23;20139;-72
2023/01/20 07:03:44;;;;;;;13.07;10.93;;;;;;;;;;6209532;23;20200;-73
2023/01/20 07:06:14;;;;;;;13.60;11.17;;;;;;;;;;6210876;23;20774;-72
2023/01/20 07:08:41;;;;;;;14.23;10.70;;;;;;;;;;6211066;23;20154;-72
2023/01/20 07:11:06;;;;;;;11.90;10.27;;;;;;;;;;6208972;23;20394;-72
2023/01/20 07:13:31;;;;;;;12.50;10.83;;;;;;;;;;6207585;23;20372;-72
2023/01/20 07:15:56;;;;;;;13.33;10.60;;;;;;;;;;6206547;23;20657;-72
2023/01/20 07:18:22;;;;;;;11.70;9.50;;;;;;;;;;6179305;23;20151;-72
2023/01/20 07:20:51;;;;;;;15.20;12.30;;;;;;;;;;6180826;23;20578;-72
2023/01/20 07:23:16;;;;;;;11.93;10.23;;;;;;;;;;6202593;23;20164;-73
2023/01/20 07:25:42;;;;;;;13.07;10.27;;;;;;;;;;6179158;23;20381;-67
2023/01/20 07:28:07;;;;;;;12.33;9.63;;;;;;;;;;6180548;23;20148;-72
2023/01/20 07:30:33;;;;;;;11.77;9.37;;;;;;;;;;6181277;23;20534;-72
2023/01/20 07:32:58;;;;;;;10.50;9.13;;;;;;;;;;6181072;23;20411;-72
2023/01/20 07:35:26;;;;;;;9.87;8.87;;;;;;;;;;6180998;23;20211;-72
2023/01/20 07:37:51;;;;;;;12.03;10.80;;;;;;;;;;6179825;23;20194;-72
2023/01/20 07:40:17;;;;;;;12.20;9.67;;;;;;;;;;6183945;23;20882;-72
2023/01/20 07:42:42;;;;;;;10.83;9.40;;;;;;;;;;6209593;23;20164;-72
2023/01/20 07:45:07;;;;;;;10.13;8.20;;;;;;;;;;6209219;23;20193;-72
2023/01/20 07:47:33;;;;;;;10.93;9.00;;;;;;;;;;6208463;23;20140;-73
2023/01/20 07:49:58;;;;;;;12.17;9.03;;;;;;;;;;6181820;23;20156;-72
2023/01/20 07:52:23;;;;;;;12.83;11.20;;;;;;;;;;6206926;23;20532;-72
2023/01/20 07:54:49;;;;;;;12.10;9.20;;;;;;;;;;6207762;23;20642;-72
2023/01/20 07:57:14;;;;;;;9.33;8.33;;;;;;;;;;6183140;23;20233;-72
2023/01/20 07:59:39;;;;;;;11.03;8.90;;;;;;;;;;6210019;23;20179;-72
2023/01/20 08:02:05;;;;;;;11.10;9.17;;;;;;;;;;6210630;23;20164;-72
2023/01/20 08:04:31;;;;;;;9.63;8.03;;;;;;;;;;6209270;23;20167;-72
2023/01/20 08:06:57;;;;;;;10.90;9.07;;;;;;;;;;6182464;23;20151;-72
2023/01/20 08:09:22;;;;;;;15.00;9.57;;;;;;;;;;6210217;23;20378;-72
2023/01/20 08:11:47;;;;;;;10.97;9.07;;;;;;;;;;6210325;23;20516;-72
2023/01/20 08:14:13;;;;;;;11.20;8.90;;;;;;;;;;6183224;23;20712;-72
2023/01/20 08:16:38;;;;;;;11.37;9.60;;;;;;;;;;6183092;23;20156;-72
2023/01/20 08:19:03;;;;;;;13.20;10.23;;;;;;;;;;6182393;23;20190;-72
2023/01/20 08:21:32;;;;;;;10.80;9.10;;;;;;;;;;6184488;23;20175;-72
2023/01/20 08:23:58;;;;;;;11.50;9.73;;;;;;;;;;6210204;23;20599;-72
2023/01/20 08:26:24;;;;;;;12.13;9.67;;;;;;;;;;6212151;23;20367;-72
2023/01/20 08:28:50;;;;;;;10.73;9.17;;;;;;;;;;6184390;23;20711;-72
2023/01/20 08:31:17;;;;;;;13.07;9.50;;;;;;;;;;6191017;23;20449;-72
2023/01/20 08:33:43;;;;;;;10.70;9.57;;;;;;;;;;6209842;23;20152;-72
2023/01/20 08:36:09;;;;;;;13.40;10.03;;;;;;;;;;6209668;23;20506;-72
2023/01/20 08:38:35;;;;;;;12.60;10.60;;;;;;;;;;6206927;23;20156;-72
2023/01/20 08:41:01;;;;;;;12.00;10.00;;;;;;;;;;6209444;23;20469;-72
2023/01/20 08:43:26;;;;;;;13.00;10.40;;;;;;;;;;6208845;23;20163;-72
2023/01/20 08:46:02;;;;;;;12.10;9.83;;;;;;;;;;6209672;23;20569;-72
2023/01/20 08:48:27;;;;;;;15.10;12.50;;;;;;;;;;6208917;23;20178;-72
2023/01/20 08:50:53;;;;;;;13.50;11.00;;;;;;;;;;6206043;23;20379;-72
2023/01/20 08:53:18;;;;;;;14.30;12.03;;;;;;;;;;6208816;23;20182;-72
2023/01/20 08:55:45;;;;;;;14.57;11.30;;;;;;;;;;6207160;23;20156;-72
2023/01/20 08:58:11;;;;;;;12.77;11.40;;;;;;;;;;6206081;23;20546;-73
2023/01/20 09:00:36;;;;;;;15.77;12.03;;;;;;;;;;6201384;23;20422;-72
2023/01/20 09:03:01;;;;;;;14.30;11.10;;;;;;;;;;6207749;23;20171;-72
2023/01/20 09:05:26;;;;;;;12.63;11.00;;;;;;;;;;6206172;23;20152;-72
2023/01/20 09:07:52;;;;;;;13.33;10.90;;;;;;;;;;6207607;23;20496;-72
2023/01/20 09:10:17;;;;;;;18.10;13.07;;;;;;;;;;6209007;23;20144;-71
2023/01/20 09:12:45;;;;;;;16.00;12.80;;;;;;;;;;6204386;23;20164;-72
2023/01/20 09:15:11;;;;;;;17.63;13.47;;;;;;;;;;6204803;23;20158;-72
2023/01/20 09:17:36;;;;;;;15.07;12.23;;;;;;;;;;6208771;23;20776;-73
2023/01/20 09:20:01;;;;;;;14.43;12.60;;;;;;;;;;6207287;23;20175;-73
2023/01/20 09:22:27;;;;;;;18.63;14.27;;;;;;;;;;6208670;23;20168;-72
2023/01/20 09:24:52;;;;;;;19.37;13.90;;;;;;;;;;6204675;23;20186;-73
2023/01/20 09:27:18;;;;;;;16.70;12.63;;;;;;;;;;6205439;23;20229;-72
2023/01/20 09:29:43;;;;;;;18.80;13.30;;;;;;;;;;6208998;23;20163;-72
2023/01/20 09:32:11;;;;;;;17.07;14.47;;;;;;;;;;6202917;23;20187;-73
2023/01/20 09:34:38;;;;;;;16.23;12.77;;;;;;;;;;6210130;23;20155;-72
2023/01/20 09:45:35;;;;;;;16.57;13.30;;;;;;;;;;6209761;23;20347;-74
2023/01/20 09:53:52;;;;;;;18.70;14.13;;;;;;;;;;6206642;23;20353;-73
2023/01/20 09:56:18;;;;;;;21.33;14.47;;;;;;;;;;6209811;23;20359;-72
2023/01/20 09:58:53;;;;;;;18.07;15.03;;;;;;;;;;6210024;23;20238;-73
2023/01/20 10:01:19;;;;;;;19.27;14.17;;;;;;;;;;6207146;23;21189;-73
2023/01/20 10:03:46;;;;;;;20.10;13.93;;;;;;;;;;6213325;23;20363;-73
2023/01/20 10:06:14;;;;;;;21.43;14.70;;;;;;;;;;6209730;23;20152;-73
2023/01/20 10:08:43;;;;;;;16.37;13.50;;;;;;;;;;6208735;23;20371;-72
2023/01/20 10:11:12;;;;;;;17.90;13.60;;;;;;;;;;6207865;23;20367;-73
2023/01/20 10:13:46;;;;;;;18.07;13.13;;;;;;;;;;6207506;23;20366;-73
2023/01/20 10:16:17;;;;;;;21.23;15.60;;;;;;;;;;6206099;23;20914;-73
2023/01/20 10:18:46;;;;;;;19.60;14.80;;;;;;;;;;6205019;23;20399;-73
2023/01/20 10:21:25;;;;;;;19.70;14.73;;;;;;;;;;6204930;23;20394;-73
2023/01/20 10:23:54;;;;;;;18.90;14.10;;;;;;;;;;6207544;23;20362;-73
2023/01/20 10:26:41;;;;;;;18.80;14.07;;;;;;;;;;6208779;23;20355;-73
2023/01/20 10:29:11;;;;;;;20.47;15.40;;;;;;;;;;6211077;23;20356;-73
2023/01/20 10:31:39;;;;;;;19.23;14.23;;;;;;;;;;6207723;23;20476;-73
2023/01/20 10:34:08;;;;;;;23.10;14.20;;;;;;;;;;6210765;23;20375;-73
2023/01/20 10:36:33;;;;;;;19.00;14.50;;;;;;;;;;6208964;23;20889;-73
2023/01/20 10:39:11;;;;;;;19.77;14.63;;;;;;;;;;6210654;23;20406;-73
2023/01/20 10:41:39;;;;;;;20.10;14.30;;;;;;;;;;6208328;23;20176;-74
2023/01/20 10:44:09;;;;;;;19.67;14.00;;;;;;;;;;6208720;23;20359;-74
2023/01/20 10:46:57;;;;;;;22.53;14.57;;;;;;;;;;6206962;23;20374;-73
2023/01/20 10:49:44;;;;;;;29.30;14.73;;;;;;;;;;6208248;23;20859;-73
2023/01/20 10:52:09;;;;;;;19.00;14.23;;;;;;;;;;6208413;23;20406;-73
2023/01/20 10:54:48;;;;;;;22.23;15.30;;;;;;;;;;6207346;23;20388;-73
2023/01/20 10:57:14;;;;;;;21.73;15.10;;;;;;;;;;6206987;23;20136;-73
2023/01/20 10:59:44;;;;;;;22.30;15.47;;;;;;;;;;6206171;23;20410;-73
2023/01/20 11:02:19;;;;;;;21.80;15.80;;;;;;;;;;6207799;23;20387;-73
2023/01/20 11:04:48;;;;;;;22.53;14.47;;;;;;;;;;6206829;23;20375;-73
2023/01/20 11:07:17;;;;;;;21.40;15.90;;;;;;;;;;6212814;23;20422;-72
2023/01/20 11:09:42;;;;;;;21.43;15.30;;;;;;;;;;6211687;23;20398;-73
2023/01/20 11:12:15;;;;;;;22.73;15.93;;;;;;;;;;6208340;23;20391;-73
2023/01/20 11:14:41;;;;;;;22.53;15.30;;;;;;;;;;6208227;23;20144;-73
2023/01/20 11:17:11;;;;;;;25.33;16.70;;;;;;;;;;6208407;23;20453;-73
2023/01/20 11:19:53;;;;;;;23.63;16.20;;;;;;;;;;6208199;23;20172;-73
2023/01/20 11:22:36;;;;;;;21.90;15.20;;;;;;;;;;6210193;23;20764;-72
2023/01/20 11:25:04;;;;;;;22.70;15.73;;;;;;;;;;6206306;23;20397;-73
2023/01/20 11:27:44;;;;;;;26.03;16.03;;;;;;;;;;6208987;23;20877;-73
2023/01/20 11:30:25;;;;;;;24.03;17.37;;;;;;;;;;6205668;23;20909;-73
2023/01/20 11:33:25;;;;;;;23.00;16.07;;;;;;;;;;6212238;23;20474;-73
2023/01/20 11:36:01;;;;;;;21.93;16.07;;;;;;;;;;6149537;23;20769;-72
2023/01/20 11:38:29;;;;;;;20.63;15.17;;;;;;;;;;6201922;23;20378;-73
2023/01/20 11:40:56;;;;;;;20.20;14.70;;;;;;;;;;6209705;23;20902;-73
2023/01/20 11:43:28;;;;;;;26.20;16.93;;;;;;;;;;6210152;23;20392;-73
2023/01/20 11:46:08;;;;;;;23.23;16.17;;;;;;;;;;6205749;23;20425;-73
2023/01/20 11:48:33;;;;;;;23.30;16.17;;;;;;;;;;6210303;23;20441;-73
2023/01/20 11:51:00;;;;;;;23.97;15.80;;;;;;;;;;6209612;23;20363;-73
2023/01/20 11:53:27;;;;;;;23.60;15.70;;;;;;;;;;6211180;23;20501;-73
2023/01/20 11:55:55;;;;;;;24.00;15.70;;;;;;;;;;6208949;23;20849;-73
2023/01/20 11:58:23;;;;;;;26.30;16.13;;;;;;;;;;6208805;23;21253;-73
2023/01/20 12:00:48;;;;;;;21.33;16.13;;;;;;;;;;6211045;23;20410;-73
2023/01/20 12:03:23;;;;;;;24.40;16.70;;;;;;;;;;6210376;23;20403;-73
2023/01/20 12:05:48;;;;;;;25.03;14.23;;;;;;;;;;6208034;23;20144;-73
2023/01/20 12:08:16;;;;;;;24.40;15.83;;;;;;;;;;6206776;23;20451;-73
2023/01/20 12:10:42;;;;;;;26.63;16.00;;;;;;;;;;6209997;23;20152;-73
2023/01/20 12:13:13;;;;;;;25.53;15.93;;;;;;;;;;6208263;23;20395;-75
2023/01/20 12:15:44;;;;;;;25.90;17.10;;;;;;;;;;6206864;23;20185;-73
2023/01/20 12:18:27;;;;;;;23.43;15.70;;;;;;;;;;6208947;23;20367;-73
2023/01/20 12:21:19;;;;;;;24.40;15.70;;;;;;;;;;6207845;23;20422;-73
2023/01/20 12:23:55;;;;;;;24.73;15.40;;;;;;;;;;6205165;23;20736;-73
2023/01/20 12:26:22;;;;;;;21.50;15.47;;;;;;;;;;6208192;23;20367;-72
2023/01/20 12:28:54;;;;;;;21.20;15.13;;;;;;;;;;6207653;23;20383;-73
2023/01/20 12:31:22;;;;;;;22.17;15.10;;;;;;;;;;6207091;23;20383;-74
2023/01/20 12:34:05;;;;;;;20.30;14.50;;;;;;;;;;6207483;23;20382;-72
2023/01/20 12:36:49;;;;;;;21.93;15.27;;;;;;;;;;6210297;23;20359;-73
2023/01/20 12:39:25;;;;;;;21.77;14.87;;;;;;;;;;6207901;23;20414;-73
2023/01/20 12:41:50;;;;;;;20.23;15.30;;;;;;;;;;6206608;23;20390;-73
2023/01/20 12:44:25;;;;;;;19.63;14.03;;;;;;;;;;6202758;23;20390;-73
2023/01/20 12:46:54;;;;;;;22.90;15.87;;;;;;;;;;6207156;23;20147;-73
2023/01/20 12:49:39;;;;;;;22.90;15.43;;;;;;;;;;6209460;23;20417;-73
2023/01/20 12:52:13;;;;;;;27.13;17.63;;;;;;;;;;6179350;23;20542;-73
2023/01/20 12:54:47;;;;;;;20.43;14.73;;;;;;;;;;6207051;23;21175;-73
2023/01/20 12:57:20;;;;;;;22.30;15.33;;;;;;;;;;6183295;23;20366;-73
2023/01/20 12:59:59;;;;;;;28.97;17.17;;;;;;;;;;6182590;23;20419;-73
2023/01/20 13:02:39;;;;;;;21.50;14.97;;;;;;;;;;6209312;23;20418;-72
2023/01/20 13:05:20;;;;;;;22.77;15.60;;;;;;;;;;6210534;23;20875;-74
2023/01/20 13:08:04;;;;;;;19.70;13.80;;;;;;;;;;6209301;23;20367;-73
2023/01/20 13:10:29;;;;;;;21.03;14.50;;;;;;;;;;6205681;23;20405;-73
2023/01/20 13:13:13;;;;;;;22.03;14.47;;;;;;;;;;6182637;23;20395;-73
2023/01/20 13:15:46;;;;;;;23.10;16.20;;;;;;;;;;6176461;23;20171;-74
2023/01/20 13:18:17;;;;;;;22.30;15.37;;;;;;;;;;6201234;23;20434;-73
2023/01/20 13:20:44;;;;;;;23.07;15.93;;;;;;;;;;6207302;23;20410;-73
2023/01/20 13:23:12;;;;;;;27.73;15.63;;;;;;;;;;6207538;23;20391;-73
2023/01/20 13:25:37;;;;;;;21.83;16.43;;;;;;;;;;6208197;23;20363;-73
2023/01/20 13:28:03;;;;;;;26.73;15.77;;;;;;;;;;6205757;23;20421;-73
2023/01/20 13:30:38;;;;;;;19.20;14.20;;;;;;;;;;6207178;23;20602;-73
2023/01/20 13:33:04;;;;;;;19.30;14.33;;;;;;;;;;6206051;23;20803;-72
2023/01/20 13:35:31;;;;;;;19.60;15.07;;;;;;;;;;6208662;23;20454;-73
2023/01/20 13:37:58;;;;;;;20.50;14.90;;;;;;;;;;6208326;23;20414;-74
2023/01/20 13:40:33;;;;;;;23.30;15.33;;;;;;;;;;6179654;23;20415;-73
2023/01/20 13:42:58;;;;;;;24.83;16.70;;;;;;;;;;6179997;23;20402;-73
2023/01/20 13:45:25;;;;;;;22.80;17.53;;;;;;;;;;6206638;23;20363;-73
2023/01/20 13:47:52;;;;;;;25.77;18.10;;;;;;;;;;6183075;23;20151;-73
2023/01/20 13:50:22;;;;;;;24.10;18.23;;;;;;;;;;6208369;23;20371;-73
2023/01/20 13:52:51;;;;;;;20.50;16.10;;;;;;;;;;6207287;23;20387;-73
2023/01/20 13:55:30;;;;;;;20.10;15.37;;;;;;;;;;6181602;23;20457;-73
2023/01/20 13:57:55;;;;;;;22.07;17.40;;;;;;;;;;6205368;23;20370;-73
2023/01/20 14:00:23;;;;;;;23.57;16.20;;;;;;;;;;6181214;23;20446;-73
2023/01/20 14:02:51;;;;;;;21.77;16.40;;;;;;;;;;6173797;23;20175;-73
2023/01/20 14:05:27;;;;;;;22.60;17.37;;;;;;;;;;6205395;23;20367;-74
2023/01/20 14:07:53;;;;;;;23.17;16.90;;;;;;;;;;6205844;23;20363;-74
2023/01/20 14:10:19;;;;;;;22.13;16.93;;;;;;;;;;6202145;23;20462;-74
2023/01/20 14:12:44;;;;;;;20.67;16.37;;;;;;;;;;6181390;23;20179;-74
2023/01/20 14:15:22;;;;;;;21.93;15.50;;;;;;;;;;6204509;23;20184;-73
2023/01/20 14:17:51;;;;;;;21.23;16.33;;;;;;;;;;6208728;23;20144;-74
2023/01/20 14:20:22;;;;;;;23.37;17.80;;;;;;;;;;6206161;23;20418;-72
2023/01/20 14:22:48;;;;;;;25.37;18.33;;;;;;;;;;6175950;23;20722;-74
2023/01/20 14:25:23;;;;;;;19.60;15.47;;;;;;;;;;6180027;23;20885;-74
2023/01/20 14:27:49;;;;;;;23.90;18.10;;;;;;;;;;6207399;23;20148;-74
2023/01/20 14:30:18;;;;;;;21.27;17.00;;;;;;;;;;6177117;23;20477;-74
2023/01/20 14:32:44;;;;;;;26.70;18.23;;;;;;;;;;6202634;23;20218;-74
2023/01/20 14:35:30;;;;;;;22.93;18.40;;;;;;;;;;6205086;23;20382;-72
2023/01/20 14:37:55;;;;;;;22.00;16.47;;;;;;;;;;6208834;23;20389;-74
2023/01/20 14:40:30;;;;;;;23.30;17.20;;;;;;;;;;6202955;23;20439;-72
2023/01/20 14:42:57;;;;;;;23.27;17.50;;;;;;;;;;6205462;23;20645;-74
2023/01/20 14:45:23;;;;;;;23.77;17.00;;;;;;;;;;6203284;23;20371;-73
2023/01/20 14:47:49;;;;;;;22.80;15.93;;;;;;;;;;6203917;23;20371;-73